createdAt,value
2023-07-14T00:00:37.020Z,98.58
2023-07-14T00:03:13.388Z,98.65
2023-07-14T00:05:47.882Z,98.66
2023-07-14T00:08:22.034Z,98.62
2023-07-14T00:10:56.390Z,98.62
2023-07-14T00:13:30.172Z,98.64
2023-07-14T00:16:03.646Z,98.65
2023-07-14T00:18:37.890Z,98.62
2023-07-14T00:21:17.889Z,98.64
2023-07-14T00:23:52.353Z,98.48
2023-07-14T00:26:26.740Z,98.41
2023-07-14T00:29:03.400Z,98.45
2023-07-14T00:31:51.514Z,98.52
2023-07-14T00:34:26.154Z,98.43
2023-07-14T00:37:01.744Z,98.43
2023-07-14T00:39:35.631Z,98.48
2023-07-14T00:42:12.784Z,98.57
2023-07-14T00:44:47.378Z,98.52
2023-07-14T00:47:24.540Z,98.51
2023-07-14T00:49:59.871Z,98.51
2023-07-14T00:52:36.923Z,98.45
2023-07-14T00:55:26.172Z,98.46
2023-07-14T00:58:00.734Z,98.44
2023-07-14T01:00:34.884Z,98.52
2023-07-14T01:03:16.619Z,98.54
2023-07-14T01:05:50.555Z,98.54
2023-07-14T01:08:25.920Z,98.44
2023-07-14T01:11:01.110Z,98.23
2023-07-14T01:13:35.377Z,98.12
2023-07-14T01:16:09.530Z,98.04
2023-07-14T01:18:44.250Z,98.01
2023-07-14T01:21:22.535Z,97.90
2023-07-14T01:24:05.222Z,98.05
2023-07-14T01:26:59.809Z,97.97
2023-07-14T01:29:34.129Z,97.89
2023-07-14T01:32:14.795Z,98.09
2023-07-14T01:34:48.741Z,98.31
2023-07-14T01:37:24.185Z,98.26
2023-07-14T01:39:59.202Z,98.22
2023-07-14T01:42:35.093Z,98.09
2023-07-14T01:45:14.245Z,98.01
2023-07-14T01:47:51.030Z,98.10
2023-07-14T01:50:28.147Z,98.00
2023-07-14T01:53:04.842Z,98.04
2023-07-14T01:55:41.000Z,97.94
2023-07-14T01:58:18.124Z,97.90
2023-07-14T02:00:54.803Z,97.97
2023-07-14T02:03:32.914Z,97.93
2023-07-14T02:06:07.258Z,97.90
2023-07-14T02:08:40.839Z,97.63
2023-07-14T02:11:17.397Z,97.77
2023-07-14T02:13:52.962Z,97.78
2023-07-14T02:16:28.716Z,97.68
2023-07-14T02:19:02.739Z,97.60
2023-07-14T02:21:38.405Z,97.64
2023-07-14T02:24:15.055Z,97.70
2023-07-14T02:26:51.462Z,97.58
2023-07-14T02:29:25.598Z,97.46
2023-07-14T02:32:02.465Z,97.44
2023-07-14T02:34:39.501Z,97.49
2023-07-14T02:37:58.779Z,97.37
2023-07-14T02:40:50.624Z,97.18
2023-07-14T02:43:25.713Z,96.93
2023-07-14T02:46:02.355Z,97.01
2023-07-14T02:48:39.348Z,96.92
2023-07-14T02:51:14.146Z,96.87
2023-07-14T02:53:48.392Z,96.73
2023-07-14T02:56:23.076Z,96.62
2023-07-14T02:58:56.931Z,96.63
2023-07-14T03:01:34.076Z,96.66
2023-07-14T03:04:08.378Z,96.58
2023-07-14T03:06:43.929Z,96.52
2023-07-14T03:09:17.929Z,96.51
2023-07-14T03:11:51.650Z,96.55
2023-07-14T03:14:25.910Z,96.47
2023-07-14T03:16:59.426Z,96.50
2023-07-14T03:19:32.913Z,96.42
2023-07-14T03:22:07.295Z,96.30
2023-07-14T03:24:40.938Z,96.26
2023-07-14T03:27:14.772Z,96.17
2023-07-14T03:29:49.644Z,96.26
2023-07-14T03:32:23.644Z,96.22
2023-07-14T03:34:57.493Z,96.05
2023-07-14T03:37:31.923Z,95.83
2023-07-14T03:40:06.622Z,95.81
2023-07-14T03:42:41.677Z,95.92
2023-07-14T03:45:15.336Z,95.78
2023-07-14T03:47:50.825Z,95.64
2023-07-14T03:50:24.936Z,95.47
2023-07-14T03:52:58.562Z,95.42
2023-07-14T03:55:34.844Z,95.49
2023-07-14T03:58:08.510Z,95.38
2023-07-14T04:00:42.281Z,95.25
2023-07-14T04:03:16.731Z,95.15
2023-07-14T04:05:50.718Z,95.03
2023-07-14T04:08:25.578Z,95.11
2023-07-14T04:11:15.107Z,95.07
2023-07-14T04:13:51.058Z,94.92
2023-07-14T04:16:25.561Z,94.89
2023-07-14T04:18:59.649Z,94.70
2023-07-14T04:21:33.456Z,94.35
2023-07-14T04:24:08.653Z,93.98
2023-07-14T04:26:56.984Z,93.80
2023-07-14T04:29:30.882Z,93.63
2023-07-14T04:32:05.030Z,93.50
2023-07-14T04:34:39.200Z,93.56
2023-07-14T04:37:12.936Z,93.45
2023-07-14T04:39:47.458Z,93.67
2023-07-14T04:42:21.200Z,93.52
2023-07-14T04:44:54.758Z,93.60
2023-07-14T04:47:28.921Z,93.75
2023-07-14T04:50:02.710Z,93.90
2023-07-14T04:52:36.864Z,93.71
2023-07-14T04:55:12.030Z,93.43
2023-07-14T04:57:46.088Z,93.26
2023-07-14T05:00:22.143Z,93.21
2023-07-14T05:02:55.724Z,93.03
2023-07-14T05:05:29.547Z,92.88
2023-07-14T05:08:03.460Z,92.39
2023-07-14T05:10:38.587Z,92.41
2023-07-14T05:13:12.598Z,92.19
2023-07-14T05:15:48.431Z,92.32
2023-07-14T05:18:22.506Z,92.43
2023-07-14T05:21:01.027Z,92.34
2023-07-14T05:23:35.665Z,91.97
2023-07-14T05:26:23.655Z,91.47
2023-07-14T05:28:57.397Z,91.25
2023-07-14T05:31:31.038Z,90.82
2023-07-14T05:34:04.595Z,90.40
2023-07-14T05:36:39.504Z,90.08
2023-07-14T05:39:13.969Z,89.98
2023-07-14T05:41:48.916Z,89.58
2023-07-14T05:44:22.327Z,89.42
2023-07-14T05:46:56.353Z,89.16
2023-07-14T05:49:31.518Z,88.89
2023-07-14T05:52:19.916Z,88.10
2023-07-14T05:54:53.986Z,87.73
2023-07-14T05:57:42.277Z,86.75
2023-07-14T06:00:20.467Z,86.89
2023-07-14T06:02:54.300Z,86.56
2023-07-14T06:05:27.811Z,86.35
2023-07-14T06:08:01.991Z,85.26
2023-07-14T06:10:36.652Z,84.84
2023-07-14T06:13:10.476Z,83.90
2023-07-14T06:15:48.234Z,83.40
2023-07-14T06:18:22.728Z,83.24
2023-07-14T06:20:56.953Z,82.00
2023-07-14T06:23:31.355Z,81.39
2023-07-14T06:26:05.282Z,80.51
2023-07-14T06:28:39.576Z,80.06
2023-07-14T06:31:16.467Z,79.28
2023-07-14T06:33:50.397Z,78.88
2023-07-14T06:36:24.192Z,78.70
2023-07-14T06:38:58.098Z,77.83
2023-07-14T06:41:32.095Z,76.98
2023-07-14T06:44:23.673Z,77.27
2023-07-14T06:46:58.638Z,77.03
2023-07-14T06:49:32.675Z,77.41
2023-07-14T06:52:07.314Z,77.23
2023-07-14T06:54:43.066Z,76.57
2023-07-14T06:57:17.109Z,76.27
2023-07-14T06:59:51.304Z,75.94
2023-07-14T07:02:24.902Z,75.90
2023-07-14T07:05:13.043Z,75.88
2023-07-14T07:07:47.360Z,76.36
2023-07-14T07:10:21.363Z,76.38
2023-07-14T07:12:55.412Z,76.26
2023-07-14T07:15:29.378Z,76.18
2023-07-14T07:18:03.445Z,76.03
2023-07-14T07:20:39.533Z,75.67
2023-07-14T07:23:13.809Z,75.98
2023-07-14T07:25:52.299Z,76.33
2023-07-14T07:28:26.232Z,76.27
2023-07-14T07:30:59.892Z,76.05
2023-07-14T07:33:34.250Z,75.78
2023-07-14T07:36:24.096Z,75.14
2023-07-14T07:38:57.968Z,75.27
2023-07-14T07:41:31.766Z,75.08
2023-07-14T07:44:05.487Z,74.92
2023-07-14T07:46:39.868Z,74.72
2023-07-14T07:49:13.709Z,74.40
2023-07-14T07:51:47.609Z,73.85
2023-07-14T07:54:22.552Z,73.60
2023-07-14T07:56:56.509Z,73.26
2023-07-14T07:59:30.523Z,73.12
2023-07-14T08:02:04.504Z,72.99
2023-07-14T08:04:38.474Z,72.81
2023-07-14T08:07:14.252Z,72.73
2023-07-14T08:09:48.042Z,71.93
2023-07-14T08:12:22.632Z,71.64
2023-07-14T08:14:58.053Z,71.61
2023-07-14T08:17:33.117Z,71.52
2023-07-14T08:20:09.328Z,70.94
2023-07-14T08:22:43.046Z,71.05
2023-07-14T08:25:16.974Z,70.25
2023-07-14T08:27:50.702Z,69.77
2023-07-14T08:30:24.482Z,70.27
2023-07-14T08:32:58.056Z,70.31
2023-07-14T08:35:31.445Z,70.33
2023-07-14T08:38:19.687Z,70.29
2023-07-14T08:40:56.857Z,70.69
2023-07-14T08:43:36.365Z,70.90
2023-07-14T08:46:27.421Z,71.21
2023-07-14T08:49:04.623Z,71.46
2023-07-14T08:51:41.683Z,71.82
2023-07-14T08:54:19.046Z,72.00
2023-07-14T08:56:54.364Z,72.10
2023-07-14T08:59:35.290Z,72.33
2023-07-14T09:02:18.009Z,72.36
2023-07-14T09:04:57.117Z,72.25
2023-07-14T09:07:31.188Z,71.89
2023-07-14T09:10:05.400Z,71.60
2023-07-14T09:12:42.591Z,71.27
2023-07-14T09:15:20.698Z,70.94
2023-07-14T09:17:59.370Z,70.77
2023-07-14T09:20:59.375Z,70.43
2023-07-14T09:23:52.225Z,70.42
2023-07-14T09:26:42.705Z,70.40
2023-07-14T09:29:18.675Z,70.29
2023-07-14T09:31:56.374Z,70.14
2023-07-14T09:34:33.958Z,70.19
2023-07-14T09:37:14.891Z,70.14
2023-07-14T09:39:51.978Z,69.88
2023-07-14T09:42:28.897Z,69.50
2023-07-14T09:45:21.160Z,69.32
2023-07-14T09:47:58.052Z,69.43
2023-07-14T09:50:34.598Z,69.18
2023-07-14T09:53:09.852Z,68.82
2023-07-14T09:55:53.602Z,68.38
2023-07-14T09:58:29.834Z,68.02
2023-07-14T10:01:06.893Z,67.83
2023-07-14T10:03:45.653Z,67.86
2023-07-14T10:06:33.839Z,67.82
2023-07-14T10:09:12.963Z,67.41
2023-07-14T10:11:50.657Z,67.10
2023-07-14T10:14:40.856Z,66.73
2023-07-14T10:17:25.374Z,66.81
2023-07-14T10:20:22.067Z,66.32
2023-07-14T10:22:58.497Z,65.67
2023-07-14T10:25:33.746Z,65.09
2023-07-14T10:28:11.534Z,65.15
2023-07-14T10:30:57.933Z,65.09
2023-07-14T10:33:35.185Z,65.62
2023-07-14T10:36:12.691Z,65.61
2023-07-14T10:38:49.563Z,66.15
2023-07-14T10:41:25.523Z,66.30
2023-07-14T10:44:03.105Z,66.48
2023-07-14T10:46:39.836Z,66.58
2023-07-14T10:49:16.813Z,66.55
2023-07-14T10:52:08.738Z,66.76
2023-07-14T10:54:45.120Z,66.99
2023-07-14T10:57:28.381Z,67.30
2023-07-14T11:00:25.326Z,67.36
2023-07-14T11:03:07.186Z,67.30
2023-07-14T11:05:59.729Z,67.15
2023-07-14T11:08:34.518Z,66.39
2023-07-14T11:11:12.632Z,66.44
2023-07-14T11:13:51.982Z,66.42
2023-07-14T11:16:42.395Z,66.42
2023-07-14T11:19:19.683Z,66.19
2023-07-14T11:22:21.348Z,65.81
2023-07-14T11:24:51.895Z,65.43
2023-07-14T11:27:32.679Z,65.03
2023-07-14T11:30:11.208Z,64.60
2023-07-14T11:32:49.391Z,64.17
2023-07-14T11:35:28.841Z,63.94
2023-07-14T11:38:14.226Z,63.66
2023-07-14T11:40:50.168Z,63.30
2023-07-14T11:43:29.292Z,63.17
2023-07-14T11:46:22.733Z,62.64
2023-07-14T11:49:10.372Z,61.40
2023-07-14T11:52:01.889Z,61.29
2023-07-14T11:55:00.736Z,60.70
2023-07-14T11:57:50.074Z,60.04
2023-07-14T12:00:27.937Z,59.06
2023-07-14T12:03:16.673Z,58.64
2023-07-14T12:06:25.356Z,57.87
2023-07-14T12:12:07.183Z,58.52
2023-07-14T12:14:52.170Z,58.04
2023-07-14T12:17:50.187Z,58.13
2023-07-14T12:20:41.753Z,58.18
2023-07-14T12:23:28.072Z,58.26
2023-07-14T12:26:18.784Z,57.63
2023-07-14T12:28:54.631Z,56.50
2023-07-14T12:31:54.928Z,55.45
2023-07-14T12:34:32.582Z,51.96
2023-07-14T12:37:05.468Z,52.82
2023-07-14T12:39:48.857Z,54.91
2023-07-14T12:42:24.526Z,53.90
2023-07-14T12:45:01.031Z,53.89
2023-07-14T12:47:50.858Z,54.39
2023-07-14T12:50:26.906Z,55.05
2023-07-14T12:53:01.300Z,55.41
2023-07-14T12:55:49.273Z,56.08
2023-07-14T12:58:25.820Z,56.23
2023-07-14T13:00:59.878Z,56.49
2023-07-14T13:03:38.445Z,56.98
2023-07-14T13:06:17.406Z,57.04
2023-07-14T13:08:52.907Z,57.04
2023-07-14T13:11:29.304Z,57.27
2023-07-14T13:14:21.458Z,57.57
2023-07-14T13:16:56.238Z,57.76
2023-07-14T13:19:36.082Z,57.92
2023-07-14T13:22:18.152Z,58.04
2023-07-14T13:25:08.562Z,58.37
2023-07-14T13:27:57.311Z,58.79
2023-07-14T13:30:33.383Z,58.94
2023-07-14T13:33:08.565Z,59.12
2023-07-14T13:36:01.318Z,59.19
2023-07-14T13:38:36.845Z,59.24
2023-07-14T13:41:28.624Z,59.29
2023-07-14T13:47:19.964Z,58.76
2023-07-14T13:49:55.078Z,58.80
2023-07-14T13:52:33.777Z,58.68
2023-07-14T13:55:14.722Z,58.60
2023-07-14T13:58:02.724Z,58.34
2023-07-14T14:00:36.513Z,58.25
2023-07-14T14:03:13.418Z,58.05
2023-07-14T14:05:47.363Z,57.85
2023-07-14T14:08:21.572Z,57.80
2023-07-14T14:10:55.389Z,58.01
2023-07-14T14:13:29.373Z,58.37
2023-07-14T14:16:20.077Z,58.88
2023-07-14T14:18:54.075Z,59.03
2023-07-14T14:21:28.859Z,59.53
2023-07-14T14:24:02.627Z,59.91
2023-07-14T14:26:36.395Z,59.95
2023-07-14T14:29:10.173Z,60.02
2023-07-14T14:31:43.967Z,60.30
2023-07-14T14:34:19.152Z,60.31
2023-07-14T14:37:09.911Z,60.00
2023-07-14T14:39:58.541Z,60.11
2023-07-14T14:42:32.375Z,60.05
2023-07-14T14:45:26.038Z,59.85
2023-07-14T14:48:00.209Z,59.78
2023-07-14T14:50:34.166Z,59.74
2023-07-14T14:53:23.404Z,59.86
2023-07-14T14:56:00.418Z,59.99
2023-07-14T14:58:48.463Z,60.07
2023-07-14T15:01:25.595Z,60.22
2023-07-14T15:03:59.761Z,60.28
2023-07-14T15:06:34.243Z,60.46
2023-07-14T15:09:08.239Z,60.69
2023-07-14T15:11:58.386Z,60.83
2023-07-14T15:14:35.156Z,61.01
2023-07-14T15:17:22.990Z,61.12
2023-07-14T15:19:57.415Z,61.30
2023-07-14T15:22:32.028Z,61.31
2023-07-14T15:25:20.218Z,61.17
2023-07-14T15:27:55.497Z,61.11
2023-07-14T15:30:31.541Z,60.99
2023-07-14T15:33:20.574Z,61.01
2023-07-14T15:35:57.655Z,61.21
2023-07-14T15:38:43.712Z,61.32
2023-07-14T15:41:21.348Z,61.78
2023-07-14T15:44:15.874Z,62.28
2023-07-14T15:46:49.895Z,62.85
2023-07-14T15:49:26.075Z,63.34
2023-07-14T15:52:17.541Z,63.61
2023-07-14T15:54:51.496Z,64.02
2023-07-14T15:57:41.165Z,64.30
2023-07-14T16:00:18.863Z,64.58
2023-07-14T16:02:52.001Z,64.91
2023-07-14T16:05:25.964Z,64.12
2023-07-14T16:08:00.029Z,64.77
2023-07-14T16:10:35.776Z,65.31
2023-07-14T16:13:24.237Z,65.47
2023-07-14T16:15:58.105Z,65.60
2023-07-14T16:18:31.788Z,65.75
2023-07-14T16:21:07.308Z,65.82
2023-07-14T16:23:41.076Z,66.11
2023-07-14T16:26:15.501Z,66.62
2023-07-14T16:28:49.546Z,67.18
2023-07-14T16:31:23.476Z,67.50
2023-07-14T16:33:57.569Z,67.67
2023-07-14T16:36:34.372Z,68.08
2023-07-14T16:39:12.651Z,68.62
2023-07-14T16:41:46.848Z,68.74
2023-07-14T16:44:34.755Z,68.74
2023-07-14T16:47:12.307Z,69.21
2023-07-14T16:49:46.368Z,69.53
2023-07-14T16:52:26.303Z,69.62
2023-07-14T16:55:34.815Z,69.73
2023-07-14T16:58:12.607Z,70.25
2023-07-14T17:00:45.524Z,70.82
2023-07-14T17:03:23.812Z,70.04
2023-07-14T17:06:14.485Z,70.55
2023-07-14T17:08:49.503Z,70.64
2023-07-14T17:11:24.420Z,70.66
2023-07-14T17:14:16.789Z,70.64
2023-07-14T17:16:50.780Z,70.76
2023-07-14T17:19:25.340Z,70.89
2023-07-14T17:22:02.434Z,70.98
2023-07-14T17:24:37.300Z,71.00
2023-07-14T17:27:16.954Z,71.05
2023-07-14T17:29:52.504Z,71.32
2023-07-14T17:32:40.176Z,71.45
2023-07-14T17:35:15.417Z,71.92
2023-07-14T17:37:49.993Z,72.46
2023-07-14T17:40:27.435Z,72.71
2023-07-14T17:43:04.252Z,72.87
2023-07-14T17:45:52.782Z,72.82
2023-07-14T17:48:26.814Z,72.99
2023-07-14T17:51:05.263Z,72.98
2023-07-14T17:53:40.998Z,73.01
2023-07-14T17:56:32.987Z,72.96
2023-07-14T17:59:07.132Z,73.17
2023-07-14T18:01:41.641Z,73.30
2023-07-14T18:04:30.754Z,73.44
2023-07-14T18:07:05.746Z,73.59
2023-07-14T18:09:39.979Z,73.66
2023-07-14T18:12:19.849Z,73.62
2023-07-14T18:14:53.890Z,73.67
2023-07-14T18:17:49.250Z,73.62
2023-07-14T18:20:25.486Z,75.92
2023-07-14T18:23:16.420Z,74.82
2023-07-14T18:25:51.666Z,74.40
2023-07-14T18:28:47.690Z,73.92
2023-07-14T18:31:22.146Z,73.80
2023-07-14T18:34:12.337Z,73.65
2023-07-14T18:36:46.974Z,73.83
2023-07-14T18:39:21.428Z,73.90
2023-07-14T18:41:56.885Z,74.10
2023-07-14T18:44:30.584Z,74.30
2023-07-14T18:47:05.953Z,74.46
2023-07-14T18:49:39.811Z,74.53
2023-07-14T18:52:16.904Z,74.56
2023-07-14T18:54:51.238Z,74.53
2023-07-14T18:57:25.688Z,74.48
2023-07-14T19:00:00.708Z,74.48
2023-07-14T19:02:49.839Z,74.54
2023-07-14T19:05:27.935Z,74.58
2023-07-14T19:08:10.536Z,74.63
2023-07-14T19:10:44.980Z,74.64
2023-07-14T19:13:22.767Z,74.59
2023-07-14T19:15:56.510Z,74.63
2023-07-14T19:18:37.587Z,74.26
2023-07-14T19:21:17.485Z,74.74
2023-07-14T19:23:52.610Z,74.94
2023-07-14T19:26:26.534Z,74.93
2023-07-14T19:29:00.471Z,74.95
2023-07-14T19:31:34.924Z,75.04
2023-07-14T19:34:20.166Z,75.05
2023-07-14T19:36:54.213Z,75.07
2023-07-14T19:39:28.046Z,75.20
2023-07-14T19:42:02.016Z,75.43
2023-07-14T19:44:36.048Z,75.62
2023-07-14T19:50:25.467Z,75.91
2023-07-14T19:52:59.877Z,75.90
2023-07-14T19:55:33.881Z,75.95
2023-07-14T19:58:12.390Z,75.87
2023-07-14T20:00:47.275Z,76.03
2023-07-14T20:03:23.125Z,76.27
2023-07-14T20:05:57.969Z,76.45
2023-07-14T20:08:43.748Z,76.57
2023-07-14T20:11:17.864Z,76.63
2023-07-14T20:14:07.630Z,76.72
2023-07-14T20:16:41.450Z,76.89
2023-07-14T20:19:15.152Z,77.09
2023-07-14T20:22:22.843Z,77.15
2023-07-14T20:24:56.730Z,77.30
2023-07-14T20:27:30.271Z,77.42
2023-07-14T20:30:05.749Z,77.51
2023-07-14T20:32:53.985Z,77.57
2023-07-14T20:35:41.802Z,77.82
2023-07-14T20:38:18.008Z,78.00
2023-07-14T20:41:06.220Z,78.13
2023-07-14T20:43:40.031Z,78.34
2023-07-14T20:46:36.069Z,78.56
2023-07-14T20:49:17.177Z,78.76
2023-07-14T20:51:59.959Z,78.98
2023-07-14T20:54:33.752Z,79.23
2023-07-14T20:57:22.363Z,79.50
2023-07-14T20:59:56.999Z,79.73
2023-07-14T21:02:46.009Z,79.89
2023-07-14T21:05:20.676Z,79.95
2023-07-14T21:08:21.233Z,80.06
2023-07-14T21:11:06.873Z,80.12
2023-07-14T21:13:56.567Z,80.14
2023-07-14T21:16:32.070Z,80.18
2023-07-14T21:19:05.584Z,80.21
2023-07-14T21:21:40.049Z,80.22
2023-07-14T21:24:19.634Z,80.23
2023-07-14T21:26:53.660Z,80.25
2023-07-14T21:29:41.552Z,80.28
2023-07-14T21:32:28.877Z,80.34
2023-07-14T21:35:21.960Z,80.31
2023-07-14T21:37:56.269Z,80.39
2023-07-14T21:40:32.187Z,80.47
2023-07-14T21:43:22.725Z,80.53
2023-07-14T21:45:56.771Z,80.53
2023-07-14T21:48:31.275Z,80.49
2023-07-14T21:51:07.262Z,80.47
2023-07-14T21:53:42.396Z,80.44
2023-07-14T21:56:16.782Z,80.44
2023-07-14T21:58:50.724Z,80.45
2023-07-14T22:01:27.718Z,80.34
2023-07-14T22:04:04.091Z,80.20
2023-07-14T22:06:38.108Z,80.19
2023-07-14T22:09:11.632Z,80.27
2023-07-14T22:12:01.154Z,80.52
2023-07-14T22:14:37.179Z,80.63
2023-07-14T22:17:15.369Z,80.76
2023-07-14T22:19:50.365Z,80.78
2023-07-14T22:22:24.224Z,80.69
2023-07-14T22:24:59.099Z,80.64
2023-07-14T22:27:34.594Z,80.64
2023-07-14T22:30:13.057Z,80.72
2023-07-14T22:32:48.480Z,80.80
2023-07-14T22:35:22.778Z,80.86
2023-07-14T22:37:57.025Z,80.99
2023-07-14T22:40:30.731Z,81.16
2023-07-14T22:43:04.623Z,81.29
2023-07-14T22:45:40.123Z,81.38
2023-07-14T22:48:16.212Z,81.50
2023-07-14T22:50:51.512Z,81.59
2023-07-14T22:53:26.343Z,81.66
2023-07-14T22:56:00.133Z,81.75
2023-07-14T22:58:33.966Z,81.87
2023-07-14T23:01:15.162Z,82.02
2023-07-14T23:03:50.128Z,82.08
2023-07-14T23:06:25.625Z,82.06
2023-07-14T23:09:00.435Z,82.06
2023-07-14T23:11:38.300Z,82.11
2023-07-14T23:14:12.990Z,82.23
2023-07-14T23:16:48.156Z,82.02
2023-07-14T23:19:22.018Z,82.17
2023-07-14T23:21:55.466Z,82.34
2023-07-14T23:24:29.238Z,82.54
2023-07-14T23:27:02.890Z,82.74
2023-07-14T23:29:36.769Z,82.86
2023-07-14T23:32:13.463Z,83.00
2023-07-14T23:34:47.787Z,83.06
2023-07-14T23:37:21.691Z,83.08
2023-07-14T23:39:55.573Z,83.17
2023-07-14T23:42:33.524Z,83.27
2023-07-14T23:45:11.932Z,83.34
2023-07-14T23:48:00.224Z,83.48
2023-07-14T23:50:36.501Z,83.45
2023-07-14T23:53:19.028Z,83.49
2023-07-14T23:56:08.983Z,83.56
2023-07-14T23:58:42.850Z,83.50
